createdAt,value
2019-06-26T00:00:00.676Z,29.73
2019-06-26T00:03:08.284Z,28.50
2019-06-26T00:06:15.877Z,30.90
2019-06-26T00:09:23.389Z,28.63
2019-06-26T00:12:30.910Z,28.43
2019-06-26T00:15:38.432Z,28.30
2019-06-26T00:18:45.939Z,29.73
2019-06-26T00:21:53.512Z,28.40
2019-06-26T00:25:01.108Z,28.73
2019-06-26T00:28:08.645Z,29.93
2019-06-26T00:31:16.094Z,28.57
2019-06-26T00:34:23.612Z,26.30
2019-06-26T00:37:31.157Z,25.37
2019-06-26T00:40:38.618Z,23.90
2019-06-26T00:43:46.089Z,26.23
2019-06-26T00:46:53.597Z,25.90
2019-06-26T00:50:01.092Z,24.27
2019-06-26T00:53:08.659Z,22.73
2019-06-26T00:56:16.120Z,28.67
2019-06-26T00:59:23.577Z,26.77
2019-06-26T01:02:31.014Z,25.67
2019-06-26T01:05:38.558Z,28.33
2019-06-26T01:08:46.022Z,25.50
2019-06-26T01:11:53.726Z,28.43
2019-06-26T01:15:02.326Z,28.93
2019-06-26T01:18:10.546Z,28.07
2019-06-26T01:21:18.038Z,29.83
2019-06-26T01:24:25.680Z,30.20
2019-06-26T01:27:33.245Z,30.47
2019-06-26T01:30:40.666Z,32.43
2019-06-26T01:33:49.109Z,32.20
2019-06-26T01:36:56.638Z,30.30
2019-06-26T01:40:04.166Z,26.63
2019-06-26T01:43:11.708Z,27.40
2019-06-26T01:46:19.250Z,26.77
2019-06-26T01:49:26.763Z,28.13
2019-06-26T01:52:34.224Z,30.73
2019-06-26T01:55:41.675Z,25.87
2019-06-26T01:58:49.116Z,23.57
2019-06-26T02:01:56.630Z,23.97
2019-06-26T02:05:04.095Z,25.50
2019-06-26T02:08:11.722Z,23.87
2019-06-26T02:11:20.008Z,23.50
2019-06-26T02:14:31.588Z,26.00
2019-06-26T02:17:37.315Z,24.47
2019-06-26T02:20:45.542Z,26.23
2019-06-26T02:23:53.092Z,24.83
2019-06-26T02:27:00.528Z,25.63
2019-06-26T02:30:08.481Z,25.63
2019-06-26T02:33:15.955Z,25.70
2019-06-26T02:36:23.516Z,25.20
2019-06-26T02:39:30.971Z,25.63
2019-06-26T02:42:38.560Z,23.73
2019-06-26T02:45:45.963Z,23.67
2019-06-26T02:48:53.421Z,22.37
2019-06-26T02:52:00.924Z,23.60
2019-06-26T02:55:10.079Z,25.57
2019-06-26T02:58:17.604Z,26.70
2019-06-26T03:01:25.084Z,23.63
2019-06-26T03:04:32.598Z,22.90
2019-06-26T03:07:40.103Z,23.30
2019-06-26T03:10:47.671Z,21.80
2019-06-26T03:13:55.121Z,21.60
2019-06-26T03:17:02.588Z,20.50
2019-06-26T03:20:10.763Z,21.60
2019-06-26T03:23:18.391Z,22.27
2019-06-26T03:26:25.836Z,21.80
2019-06-26T03:29:34.603Z,21.40
2019-06-26T03:32:42.132Z,21.17
2019-06-26T03:35:49.639Z,21.60
2019-06-26T03:38:57.452Z,24.10
2019-06-26T03:42:04.927Z,21.60
2019-06-26T03:45:25.038Z,22.13
2019-06-26T03:48:21.808Z,20.57
2019-06-26T03:51:29.378Z,21.33
2019-06-26T03:54:36.854Z,20.07
2019-06-26T03:57:44.317Z,20.37
2019-06-26T04:00:51.771Z,21.20
2019-06-26T04:03:59.276Z,20.03
2019-06-26T04:07:07.186Z,19.60
2019-06-26T04:10:14.788Z,18.87
2019-06-26T04:13:22.236Z,21.60
2019-06-26T04:16:29.799Z,19.17
2019-06-26T04:19:37.306Z,19.23
2019-06-26T04:22:47.585Z,18.43
2019-06-26T04:25:53.919Z,17.83
2019-06-26T04:29:01.445Z,18.13
2019-06-26T04:32:08.887Z,19.17
2019-06-26T04:35:16.747Z,18.63
2019-06-26T04:38:24.232Z,17.67
2019-06-26T04:41:31.746Z,18.37
2019-06-26T04:44:39.220Z,17.00
2019-06-26T04:47:46.683Z,17.60
2019-06-26T04:50:54.171Z,16.90
2019-06-26T04:54:02.030Z,17.30
2019-06-26T04:57:09.590Z,18.37
2019-06-26T05:00:17.636Z,17.83
2019-06-26T05:03:25.279Z,18.63
2019-06-26T05:06:32.780Z,17.67
2019-06-26T05:09:40.428Z,16.57
2019-06-26T05:12:48.241Z,17.73
2019-06-26T05:15:55.698Z,16.23
2019-06-26T05:19:03.242Z,16.60
2019-06-26T05:22:10.746Z,24.63
2019-06-26T05:25:18.301Z,17.87
2019-06-26T05:28:25.779Z,17.40
2019-06-26T05:31:33.316Z,18.47
2019-06-26T05:34:40.881Z,16.77
2019-06-26T05:37:49.460Z,16.00
2019-06-26T05:40:56.869Z,16.37
2019-06-26T05:44:04.376Z,16.63
2019-06-26T05:47:11.872Z,41.10
2019-06-26T05:50:21.232Z,72.37
2019-06-26T05:53:28.681Z,18.27
2019-06-26T05:56:36.205Z,17.33
2019-06-26T05:59:43.726Z,15.90
2019-06-26T06:02:53.837Z,16.93
2019-06-26T06:06:00.300Z,15.93
2019-06-26T06:09:08.280Z,16.17
2019-06-26T06:12:17.085Z,16.93
2019-06-26T06:15:24.674Z,16.23
2019-06-26T06:18:32.218Z,17.50
2019-06-26T06:21:39.667Z,15.27
2019-06-26T06:24:47.150Z,15.37
2019-06-26T06:27:54.632Z,16.43
2019-06-26T06:31:02.312Z,15.43
2019-06-26T06:34:10.122Z,16.83
2019-06-26T06:37:17.714Z,15.10
2019-06-26T06:40:25.212Z,15.67
2019-06-26T06:43:32.682Z,16.87
2019-06-26T06:46:40.227Z,15.50
2019-06-26T06:49:47.711Z,15.73
2019-06-26T06:52:55.285Z,14.60
2019-06-26T06:56:02.954Z,15.13
2019-06-26T06:59:10.440Z,14.03
2019-06-26T07:02:17.929Z,13.30
2019-06-26T07:05:25.364Z,13.67
2019-06-26T07:08:32.927Z,13.13
2019-06-26T07:11:40.481Z,15.27
2019-06-26T07:14:48.021Z,17.90
2019-06-26T07:17:55.724Z,13.63
2019-06-26T07:21:03.403Z,14.43
2019-06-26T07:24:10.848Z,13.20
2019-06-26T07:27:18.388Z,13.30
2019-06-26T07:30:26.088Z,20.60
2019-06-26T07:33:33.569Z,18.97
2019-06-26T07:36:41.029Z,12.50
2019-06-26T07:39:48.511Z,82.30
2019-06-26T07:42:56.742Z,78.67
2019-06-26T07:46:04.253Z,16.57
2019-06-26T07:49:11.713Z,12.77
2019-06-26T07:52:19.180Z,25.33
2019-06-26T07:55:26.720Z,13.93
2019-06-26T07:58:34.206Z,12.27
2019-06-26T08:01:41.843Z,11.30
2019-06-26T08:04:49.217Z,10.83
2019-06-26T08:07:56.680Z,21.33
2019-06-26T08:11:06.590Z,14.57
2019-06-26T08:14:13.666Z,12.00
2019-06-26T08:17:21.206Z,12.67
2019-06-26T08:20:28.768Z,12.40
2019-06-26T08:23:36.210Z,11.90
2019-06-26T08:26:43.659Z,12.50
2019-06-26T08:29:51.102Z,13.00
2019-06-26T08:32:58.694Z,11.77
2019-06-26T08:36:06.240Z,11.30
2019-06-26T08:39:13.739Z,11.83
2019-06-26T08:42:21.266Z,10.43
2019-06-26T08:45:28.803Z,11.90
2019-06-26T08:48:40.254Z,10.83
2019-06-26T08:51:45.351Z,10.90
2019-06-26T08:54:52.805Z,11.60
2019-06-26T08:58:00.283Z,13.10
2019-06-26T09:01:07.718Z,11.43
2019-06-26T09:04:15.197Z,12.67
2019-06-26T09:07:22.621Z,12.37
2019-06-26T09:10:30.070Z,11.83
2019-06-26T09:13:37.584Z,12.97
2019-06-26T09:16:45.047Z,13.07
2019-06-26T09:19:52.688Z,9.93
2019-06-26T09:23:00.177Z,13.07
2019-06-26T09:26:07.655Z,12.47
2019-06-26T09:29:15.114Z,11.43
2019-06-26T09:32:22.580Z,12.40
2019-06-26T09:35:30.117Z,12.53
2019-06-26T09:38:37.570Z,12.00
2019-06-26T09:41:45.030Z,12.87
2019-06-26T09:44:52.550Z,11.87
2019-06-26T09:48:00.008Z,12.27
2019-06-26T09:51:07.727Z,11.17
2019-06-26T09:54:15.192Z,12.03
2019-06-26T09:57:22.673Z,12.50
2019-06-26T10:00:32.184Z,10.50
2019-06-26T10:03:39.656Z,10.90
2019-06-26T10:06:47.093Z,12.03
2019-06-26T10:09:54.524Z,12.13
2019-06-26T10:13:02.085Z,11.30
2019-06-26T10:16:09.540Z,12.23
2019-06-26T10:19:17.018Z,12.87
2019-06-26T10:22:24.561Z,11.20
2019-06-26T10:25:32.103Z,11.97
2019-06-26T10:28:39.556Z,10.50
2019-06-26T10:31:47.017Z,10.30
2019-06-26T10:34:54.464Z,9.87
2019-06-26T10:38:01.871Z,9.20
2019-06-26T10:41:09.310Z,9.37
2019-06-26T10:44:16.782Z,8.43
2019-06-26T10:47:24.324Z,13.00
2019-06-26T10:50:31.888Z,10.70
2019-06-26T10:53:39.346Z,7.90
2019-06-26T10:56:46.986Z,7.07
2019-06-26T10:59:55.784Z,7.47
2019-06-26T11:03:03.658Z,7.23
2019-06-26T11:06:11.118Z,14.00
2019-06-26T11:09:18.669Z,12.97
2019-06-26T11:12:26.139Z,7.67
2019-06-26T11:15:33.603Z,7.80
2019-06-26T11:18:41.088Z,6.70
2019-06-26T11:21:48.687Z,8.63
2019-06-26T11:24:56.204Z,6.43
2019-06-26T11:28:03.715Z,6.70
2019-06-26T11:31:11.185Z,6.77
2019-06-26T11:34:18.710Z,8.50
2019-06-26T11:37:26.146Z,10.07
2019-06-26T11:40:33.847Z,6.40
2019-06-26T11:43:41.424Z,6.40
2019-06-26T11:46:49.253Z,6.70
2019-06-26T11:50:00.154Z,7.27
2019-06-26T11:53:06.814Z,6.80
2019-06-26T11:56:14.304Z,6.70
2019-06-26T11:59:21.758Z,6.10
2019-06-26T12:02:29.186Z,6.00
2019-06-26T12:05:36.803Z,5.63
2019-06-26T12:08:44.297Z,6.40
2019-06-26T12:11:51.773Z,6.67
2019-06-26T12:14:59.221Z,6.50
2019-06-26T12:18:06.626Z,6.93
2019-06-26T12:21:14.057Z,9.20
2019-06-26T12:24:21.652Z,7.87
2019-06-26T12:27:29.101Z,8.03
2019-06-26T12:30:36.564Z,6.70
2019-06-26T12:33:44.105Z,8.93
2019-06-26T12:36:51.672Z,7.30
2019-06-26T12:39:59.130Z,5.87
2019-06-26T12:43:06.574Z,7.40
2019-06-26T12:46:17.886Z,7.63
2019-06-26T12:49:23.090Z,9.30
2019-06-26T12:52:32.044Z,8.70
2019-06-26T12:55:39.463Z,7.10
2019-06-26T12:58:46.974Z,7.13
2019-06-26T13:01:54.425Z,9.70
2019-06-26T13:05:03.703Z,7.83
2019-06-26T13:08:11.519Z,9.50
2019-06-26T13:11:19.014Z,9.23
2019-06-26T13:14:26.512Z,6.97
2019-06-26T13:17:34.047Z,7.80
2019-06-26T13:20:52.209Z,8.60
2019-06-26T13:23:50.566Z,6.93
2019-06-26T13:26:58.000Z,7.87
2019-06-26T13:30:06.115Z,8.80
2019-06-26T13:33:14.870Z,6.63
2019-06-26T13:36:22.378Z,7.17
2019-06-26T13:39:29.879Z,10.67
2019-06-26T13:42:37.338Z,8.53
2019-06-26T13:45:44.872Z,7.70
2019-06-26T13:48:52.277Z,7.30
2019-06-26T13:51:59.834Z,6.80
2019-06-26T13:55:08.109Z,6.73
2019-06-26T13:58:15.524Z,11.60
2019-06-26T14:01:23.334Z,7.03
2019-06-26T14:04:31.857Z,6.67
2019-06-26T14:07:39.378Z,6.53
2019-06-26T14:10:46.921Z,6.40
2019-06-26T14:13:54.436Z,6.70
2019-06-26T14:17:03.894Z,6.90
2019-06-26T14:20:11.545Z,8.20
2019-06-26T14:23:19.052Z,10.07
2019-06-26T14:26:26.520Z,8.63
2019-06-26T14:29:33.991Z,12.57
2019-06-26T14:32:41.419Z,7.80
2019-06-26T14:35:48.942Z,7.50
2019-06-26T14:38:56.364Z,7.13
2019-06-26T14:42:03.848Z,9.70
2019-06-26T14:45:11.599Z,6.67
2019-06-26T14:48:19.208Z,7.03
2019-06-26T14:51:41.226Z,7.27
2019-06-26T14:54:35.678Z,7.93
2019-06-26T14:57:43.069Z,6.87
2019-06-26T15:00:50.510Z,11.63
2019-06-26T15:03:57.963Z,5.97
2019-06-26T15:07:05.479Z,7.97
2019-06-26T15:10:13.306Z,7.33
2019-06-26T15:13:20.708Z,7.33
2019-06-26T15:16:30.474Z,10.10
2019-06-26T15:19:38.583Z,8.63
2019-06-26T15:22:46.002Z,8.67
2019-06-26T15:25:53.472Z,7.80
2019-06-26T15:29:00.929Z,9.67
2019-06-26T15:32:08.401Z,7.97
2019-06-26T15:35:15.980Z,8.60
2019-06-26T15:38:23.488Z,9.90
2019-06-26T15:41:30.915Z,8.97
2019-06-26T15:44:38.511Z,8.87
2019-06-26T15:47:45.951Z,10.30
2019-06-26T15:50:53.414Z,8.67
2019-06-26T15:54:01.352Z,9.40
2019-06-26T15:57:08.782Z,8.60
2019-06-26T16:00:16.635Z,9.03
2019-06-26T16:03:24.121Z,8.20
2019-06-26T16:06:31.590Z,8.60
2019-06-26T16:09:39.032Z,15.17
2019-06-26T16:12:46.483Z,10.73
2019-06-26T16:15:54.034Z,9.00
2019-06-26T16:19:06.232Z,10.20
2019-06-26T16:22:13.746Z,9.40
2019-06-26T16:25:21.254Z,11.80
2019-06-26T16:28:28.662Z,8.80
2019-06-26T16:31:36.179Z,9.80
2019-06-26T16:34:43.686Z,9.20
2019-06-26T16:37:51.238Z,11.27
2019-06-26T16:40:58.686Z,12.53
2019-06-26T16:44:06.822Z,9.50
2019-06-26T16:47:14.244Z,9.50
2019-06-26T16:50:21.667Z,9.63
2019-06-26T16:53:29.196Z,9.93
2019-06-26T16:56:36.637Z,10.20
2019-06-26T16:59:44.087Z,10.80
2019-06-26T17:02:51.592Z,9.50
2019-06-26T17:05:59.042Z,9.90
2019-06-26T17:09:09.931Z,16.50
2019-06-26T17:12:19.314Z,14.37
2019-06-26T17:15:26.884Z,16.60
2019-06-26T17:18:34.395Z,12.33
2019-06-26T17:21:41.860Z,11.00
2019-06-26T17:24:49.471Z,12.00
2019-06-26T17:27:56.895Z,10.03
2019-06-26T17:31:04.354Z,14.60
2019-06-26T17:34:11.827Z,10.53
2019-06-26T17:37:19.358Z,12.20
2019-06-26T17:40:26.803Z,11.20
2019-06-26T17:43:34.353Z,10.47
2019-06-26T17:46:41.858Z,12.07
2019-06-26T17:49:49.402Z,12.00
2019-06-26T17:52:56.880Z,11.73
2019-06-26T17:56:04.861Z,11.03
2019-06-26T17:59:12.381Z,11.77
2019-06-26T18:02:21.710Z,10.90
2019-06-26T18:05:29.152Z,13.10
2019-06-26T18:08:36.545Z,12.63
2019-06-26T18:11:44.017Z,15.00
2019-06-26T18:14:51.473Z,12.37
2019-06-26T18:17:58.972Z,11.50
2019-06-26T18:21:06.578Z,12.67
2019-06-26T18:24:14.434Z,13.00
2019-06-26T18:27:21.965Z,17.63
2019-06-26T18:30:29.645Z,13.20
2019-06-26T18:33:37.175Z,13.00
2019-06-26T18:36:44.657Z,20.70
2019-06-26T18:39:52.121Z,13.53
2019-06-26T18:42:59.587Z,17.10
2019-06-26T18:46:07.144Z,14.33
2019-06-26T18:49:14.775Z,12.67
2019-06-26T18:52:22.247Z,14.30
2019-06-26T18:55:29.691Z,14.37
2019-06-26T18:58:37.382Z,14.00
2019-06-26T19:01:44.925Z,13.70
2019-06-26T19:04:54.232Z,13.37
2019-06-26T19:08:02.555Z,15.33
2019-06-26T19:11:10.637Z,16.57
2019-06-26T19:14:18.241Z,12.77
2019-06-26T19:17:26.037Z,11.57
2019-06-26T19:20:34.018Z,16.53
2019-06-26T19:23:41.570Z,22.37
2019-06-26T19:26:49.032Z,12.77
2019-06-26T19:29:56.603Z,15.20
2019-06-26T19:33:04.269Z,14.17
2019-06-26T19:36:11.993Z,15.63
2019-06-26T19:39:20.928Z,11.43
2019-06-26T19:42:28.726Z,12.20
2019-06-26T19:45:36.482Z,11.83
2019-06-26T19:48:44.031Z,15.40
2019-06-26T19:51:51.680Z,12.77
2019-06-26T19:54:59.282Z,12.00
2019-06-26T19:58:07.038Z,15.00
2019-06-26T20:01:14.740Z,13.47
2019-06-26T20:04:22.823Z,11.83
2019-06-26T20:07:30.670Z,13.10
2019-06-26T20:10:38.525Z,13.33
2019-06-26T20:13:46.348Z,13.70
2019-06-26T20:16:54.037Z,11.73
2019-06-26T20:20:01.858Z,11.43
2019-06-26T20:23:09.565Z,12.40
2019-06-26T20:26:17.200Z,10.70
2019-06-26T20:29:24.741Z,14.60
2019-06-26T20:32:32.359Z,12.17
2019-06-26T20:35:39.989Z,12.93
2019-06-26T20:38:47.791Z,14.10
2019-06-26T20:41:55.250Z,15.43
2019-06-26T20:45:02.827Z,12.87
2019-06-26T20:48:10.357Z,17.10
2019-06-26T20:51:20.737Z,17.57
2019-06-26T20:54:27.317Z,13.63
2019-06-26T20:57:35.014Z,18.13
2019-06-26T21:00:42.776Z,18.70
2019-06-26T21:03:50.209Z,18.73
2019-06-26T21:06:57.973Z,16.30
2019-06-26T21:10:05.802Z,17.00
2019-06-26T21:13:13.461Z,15.77
2019-06-26T21:16:21.709Z,14.37
2019-06-26T21:19:29.265Z,14.30
2019-06-26T21:22:36.792Z,14.10
2019-06-26T21:25:44.253Z,14.27
2019-06-26T21:28:51.789Z,15.87
2019-06-26T21:31:59.249Z,16.73
2019-06-26T21:35:07.399Z,14.60
2019-06-26T21:38:15.315Z,14.13
2019-06-26T21:41:23.275Z,15.90
2019-06-26T21:44:30.984Z,14.07
2019-06-26T21:47:39.131Z,12.70
2019-06-26T21:50:47.754Z,16.23
2019-06-26T21:53:56.015Z,14.70
2019-06-26T21:57:21.660Z,13.30
2019-06-26T22:00:48.025Z,13.97
2019-06-26T22:04:13.742Z,13.17
2019-06-26T22:07:26.136Z,14.30
2019-06-26T22:10:38.389Z,16.60
2019-06-26T22:13:45.897Z,12.57
2019-06-26T22:16:53.750Z,13.23
2019-06-26T22:20:01.349Z,14.83
2019-06-26T22:23:09.523Z,13.10
2019-06-26T22:26:17.343Z,13.70
2019-06-26T22:29:25.345Z,13.00
2019-06-26T22:32:32.973Z,13.33
2019-06-26T22:35:40.744Z,13.03
2019-06-26T22:38:48.235Z,13.27
2019-06-26T22:41:55.673Z,15.63
2019-06-26T22:45:03.247Z,12.10
2019-06-26T22:48:11.204Z,12.23
2019-06-26T22:51:18.788Z,13.17
2019-06-26T22:54:26.575Z,12.87
2019-06-26T22:57:34.244Z,18.33
2019-06-26T23:00:41.852Z,14.37
2019-06-26T23:03:49.444Z,16.63
2019-06-26T23:06:57.019Z,15.10
2019-06-26T23:10:04.945Z,17.37
2019-06-26T23:13:12.787Z,12.90
2019-06-26T23:16:20.486Z,12.63
2019-06-26T23:19:28.440Z,12.53
2019-06-26T23:22:35.868Z,13.30
2019-06-26T23:25:43.856Z,13.80
2019-06-26T23:28:51.541Z,12.90
2019-06-26T23:32:02.359Z,12.20
2019-06-26T23:35:08.869Z,13.50
2019-06-26T23:38:16.493Z,14.20
2019-06-26T23:41:24.215Z,13.83
2019-06-26T23:44:32.067Z,12.27
2019-06-26T23:47:40.663Z,13.03
2019-06-26T23:50:48.157Z,15.40
2019-06-26T23:53:55.766Z,14.70
2019-06-26T23:57:03.253Z,12.80
